sensor_id;sensor_type;location;lat;lon;timestamp;temperature;humidity
78076;DHT22;67714;52.546;13.422;2023-02-17T08:31:50;10.7;95.7
78076;DHT22;67714;52.546;13.422;2023-02-17T08:33:52;10.6;95.6
78076;DHT22;67714;52.546;13.422;2023-02-17T08:35:54;10.7;95.9
78076;DHT22;67714;52.546;13.422;2023-02-17T08:37:55;10.7;95.8
78076;DHT22;67714;52.546;13.422;2023-02-17T08:39:57;10.6;96.1
78076;DHT22;67714;52.546;13.422;2023-02-17T08:41:58;10.6;96.7
78076;DHT22;67714;52.546;13.422;2023-02-17T08:44:03;10.6;97
78076;DHT22;67714;52.546;13.422;2023-02-17T08:46:08;10.6;97
78076;DHT22;67714;52.546;13.422;2023-02-17T08:48:10;10.6;97.3
78076;DHT22;67714;52.546;13.422;2023-02-17T08:50:12;10.5;97.8
78076;DHT22;67714;52.546;13.422;2023-02-17T08:52:14;10.5;98.2
78076;DHT22;67714;52.546;13.422;2023-02-17T08:54:17;10.5;98.5
78076;DHT22;67714;52.546;13.422;2023-02-17T08:56:19;10.5;98.7
78076;DHT22;67714;52.546;13.422;2023-02-17T08:58:21;10.5;98.9
78076;DHT22;67714;52.546;13.422;2023-02-17T09:00:22;10.5;99
78076;DHT22;67714;52.546;13.422;2023-02-17T09:02:24;10.5;98.9
78076;DHT22;67714;52.546;13.422;2023-02-17T09:04:25;10.6;99.2
78076;DHT22;67714;52.546;13.422;2023-02-17T09:06:32;10.5;99.1
78076;DHT22;67714;52.546;13.422;2023-02-17T09:08:35;10.5;99.5
78076;DHT22;67714;52.546;13.422;2023-02-17T09:10:37;10.5;99.8
78076;DHT22;67714;52.546;13.422;2023-02-17T09:12:38;10.6;99.9
78076;DHT22;67714;52.546;13.422;2023-02-17T09:14:40;10.6;99.9
78076;DHT22;67714;52.546;13.422;2023-02-17T09:16:42;10.6;100
78076;DHT22;67714;52.546;13.422;2023-02-17T09:18:44;10.6;100
78076;DHT22;67714;52.546;13.422;2023-02-17T09:20:45;10.5;100
78076;DHT22;67714;52.546;13.422;2023-02-17T09:22:46;10.5;100
78076;DHT22;67714;52.546;13.422;2023-02-17T09:24:48;10.5;100
78076;DHT22;67714;52.546;13.422;2023-02-17T09:26:50;10.5;100
78076;DHT22;67714;52.546;13.422;2023-02-17T09:28:51;10.5;100
78076;DHT22;67714;52.546;13.422;2023-02-17T09:30:53;10.5;100
78076;DHT22;67714;52.546;13.422;2023-02-17T09:32:54;10.5;100
78076;DHT22;67714;52.546;13.422;2023-02-17T09:34:57;10.6;100
78076;DHT22;67714;52.546;13.422;2023-02-17T09:40:17;10.6;100
78076;DHT22;67714;52.546;13.422;2023-02-17T09:45:50;10.7;100
78076;DHT22;67714;52.546;13.422;2023-02-17T09:46:32;10.7;100
78076;DHT22;67714;52.546;13.422;2023-02-17T09:47:57;10.7;100
78076;DHT22;67714;52.546;13.422;2023-02-17T09:50:02;10.7;100
78076;DHT22;67714;52.546;13.422;2023-02-17T09:52:10;10.7;100
78076;DHT22;67714;52.546;13.422;2023-02-17T09:54:15;10.6;100
78076;DHT22;67714;52.546;13.422;2023-02-17T09:56:21;10.6;100
78076;DHT22;67714;52.546;13.422;2023-02-17T09:58:27;10.6;100
78076;DHT22;67714;52.546;13.422;2023-02-17T10:00:33;10.5;100
78076;DHT22;67714;52.546;13.422;2023-02-17T10:02:40;10.5;100
78076;DHT22;67714;52.546;13.422;2023-02-17T10:04:46;10.6;100
78076;DHT22;67714;52.546;13.422;2023-02-17T10:06:58;10.6;100
78076;DHT22;67714;52.546;13.422;2023-02-17T10:09:03;10.7;100
78076;DHT22;67714;52.546;13.422;2023-02-17T10:11:15;10.5;100
78076;DHT22;67714;52.546;13.422;2023-02-17T10:13:20;10.5;100
78076;DHT22;67714;52.546;13.422;2023-02-17T10:15:24;10.5;100
78076;DHT22;67714;52.546;13.422;2023-02-17T10:17:31;10.5;100
78076;DHT22;67714;52.546;13.422;2023-02-17T10:19:38;10.6;100
78076;DHT22;67714;52.546;13.422;2023-02-17T10:21:45;10.6;100
78076;DHT22;67714;52.546;13.422;2023-02-17T10:23:48;10.5;100
78076;DHT22;67714;52.546;13.422;2023-02-17T10:25:59;10.5;100
78076;DHT22;67714;52.546;13.422;2023-02-17T10:28:07;10.5;100
78076;DHT22;67714;52.546;13.422;2023-02-17T10:30:18;10.5;100
78076;DHT22;67714;52.546;13.422;2023-02-17T10:32:22;10.6;100
78076;DHT22;67714;52.546;13.422;2023-02-17T10:34:33;10.6;100
78076;DHT22;67714;52.546;13.422;2023-02-17T10:36:42;10.6;100
78076;DHT22;67714;52.546;13.422;2023-02-17T10:38:50;10.6;100
78076;DHT22;67714;52.546;13.422;2023-02-17T10:40:53;10.7;100
78076;DHT22;67714;52.546;13.422;2023-02-17T10:42:57;10.8;100
78076;DHT22;67714;52.546;13.422;2023-02-17T10:45:02;10.8;100
78076;DHT22;67714;52.546;13.422;2023-02-17T10:47:04;10.8;100
78076;DHT22;67714;52.546;13.422;2023-02-17T10:49:13;10.9;100
78076;DHT22;67714;52.546;13.422;2023-02-17T10:51:19;10.9;100
78076;DHT22;67714;52.546;13.422;2023-02-17T10:53:24;10.9;100
78076;DHT22;67714;52.546;13.422;2023-02-17T10:55:33;10.9;100
78076;DHT22;67714;52.546;13.422;2023-02-17T10:57:38;11;100
78076;DHT22;67714;52.546;13.422;2023-02-17T10:59:42;11;100
78076;DHT22;67714;52.546;13.422;2023-02-17T11:01:44;11;100
78076;DHT22;67714;52.546;13.422;2023-02-17T11:03:45;11.1;100
78076;DHT22;67714;52.546;13.422;2023-02-17T11:05:52;11.1;100
78076;DHT22;67714;52.546;13.422;2023-02-17T11:07:57;11;100
78076;DHT22;67714;52.546;13.422;2023-02-17T11:10:00;11.1;100
78076;DHT22;67714;52.546;13.422;2023-02-17T11:12:05;11.1;100
78076;DHT22;67714;52.546;13.422;2023-02-17T11:14:16;11.1;100
78076;DHT22;67714;52.546;13.422;2023-02-17T11:16:21;11.2;100
78076;DHT22;67714;52.546;13.422;2023-02-17T11:18:27;11.2;100
78076;DHT22;67714;52.546;13.422;2023-02-17T11:20:32;11.2;100
78076;DHT22;67714;52.546;13.422;2023-02-17T11:22:35;11.2;100
78076;DHT22;67714;52.546;13.422;2023-02-17T11:24:37;11.2;100
78076;DHT22;67714;52.546;13.422;2023-02-17T11:26:39;11.2;100
78076;DHT22;67714;52.546;13.422;2023-02-17T11:28:40;11.3;100
78076;DHT22;67714;52.546;13.422;2023-02-17T11:30:48;11.4;100
78076;DHT22;67714;52.546;13.422;2023-02-17T11:32:50;11.4;100
78076;DHT22;67714;52.546;13.422;2023-02-17T11:34:55;11.5;99.3
78076;DHT22;67714;52.546;13.422;2023-02-17T11:37:19;11.5;99.7
78076;DHT22;67714;52.546;13.422;2023-02-17T11:39:21;11.4;99.3
78076;DHT22;67714;52.546;13.422;2023-02-17T11:41:23;11.4;99.8
78076;DHT22;67714;52.546;13.422;2023-02-17T11:43:25;11.4;100
78076;DHT22;67714;52.546;13.422;2023-02-17T11:45:31;11.4;100
78076;DHT22;67714;52.546;13.422;2023-02-17T11:47:41;11.5;99.5
78076;DHT22;67714;52.546;13.422;2023-02-17T11:49:53;11.5;99.2
78076;DHT22;67714;52.546;13.422;2023-02-17T11:52:04;11.5;98.8
78076;DHT22;67714;52.546;13.422;2023-02-17T11:54:15;11.6;99
78076;DHT22;67714;52.546;13.422;2023-02-17T11:56:22;11.6;99
78076;DHT22;67714;52.546;13.422;2023-02-17T11:58:29;11.6;98.6
78076;DHT22;67714;52.546;13.422;2023-02-17T12:00:36;11.6;98.6
78076;DHT22;67714;52.546;13.422;2023-02-17T12:02:50;11.6;98.6
78076;DHT22;67714;52.546;13.422;2023-02-17T12:05:03;11.6;98.7
78076;DHT22;67714;52.546;13.422;2023-02-17T12:07:19;11.7;98.5
78076;DHT22;67714;52.546;13.422;2023-02-17T12:09:26;11.7;98.2
78076;DHT22;67714;52.546;13.422;2023-02-17T12:11:39;11.7;98.1
78076;DHT22;67714;52.546;13.422;2023-02-17T12:13:54;11.8;98
78076;DHT22;67714;52.546;13.422;2023-02-17T12:16:05;11.8;98
78076;DHT22;67714;52.546;13.422;2023-02-17T12:18:18;11.8;97.6
78076;DHT22;67714;52.546;13.422;2023-02-17T12:20:30;11.8;97.8
78076;DHT22;67714;52.546;13.422;2023-02-17T12:22:43;11.9;97.3
78076;DHT22;67714;52.546;13.422;2023-02-17T12:24:57;12;97.4
78076;DHT22;67714;52.546;13.422;2023-02-17T12:27:05;12.1;96.7
78076;DHT22;67714;52.546;13.422;2023-02-17T12:29:15;12.1;96.4
78076;DHT22;67714;52.546;13.422;2023-02-17T12:31:31;12.2;96.6
78076;DHT22;67714;52.546;13.422;2023-02-17T12:33:41;12.2;96.2
78076;DHT22;67714;52.546;13.422;2023-02-17T12:35:47;12.2;96.2
78076;DHT22;67714;52.546;13.422;2023-02-17T12:37:53;12.3;96.5
78076;DHT22;67714;52.546;13.422;2023-02-17T12:39:58;12.4;96.6
78076;DHT22;67714;52.546;13.422;2023-02-17T12:42:03;12.5;95.8
78076;DHT22;67714;52.546;13.422;2023-02-17T12:44:12;12.5;95.5
78076;DHT22;67714;52.546;13.422;2023-02-17T12:46:18;12.6;94.7
78076;DHT22;67714;52.546;13.422;2023-02-17T12:48:24;12.7;94.8
78076;DHT22;67714;52.546;13.422;2023-02-17T12:50:31;12.7;94.5
78076;DHT22;67714;52.546;13.422;2023-02-17T12:52:36;12.7;94.4
78076;DHT22;67714;52.546;13.422;2023-02-17T12:54:41;12.8;94.4
78076;DHT22;67714;52.546;13.422;2023-02-17T12:56:47;12.8;94
78076;DHT22;67714;52.546;13.422;2023-02-17T12:58:54;12.9;93.5
78076;DHT22;67714;52.546;13.422;2023-02-17T13:01:01;12.9;92.8
78076;DHT22;67714;52.546;13.422;2023-02-17T13:03:04;12.9;92.5
78076;DHT22;67714;52.546;13.422;2023-02-17T13:05:15;12.9;92.4
78076;DHT22;67714;52.546;13.422;2023-02-17T13:07:23;12.9;92
78076;DHT22;67714;52.546;13.422;2023-02-17T13:09:30;12.9;91.6
78076;DHT22;67714;52.546;13.422;2023-02-17T13:11:33;12.9;91.8
78076;DHT22;67714;52.546;13.422;2023-02-17T13:13:35;12.9;91.4
78076;DHT22;67714;52.546;13.422;2023-02-17T13:15:38;12.9;91.5
78076;DHT22;67714;52.546;13.422;2023-02-17T13:17:51;13;91.2
78076;DHT22;67714;52.546;13.422;2023-02-17T13:21:00;13;91
78076;DHT22;67714;52.546;13.422;2023-02-17T13:23:05;13.1;90.2
78076;DHT22;67714;52.546;13.422;2023-02-17T13:25:09;13.1;90
78076;DHT22;67714;52.546;13.422;2023-02-17T13:27:18;13.1;89.7
78076;DHT22;67714;52.546;13.422;2023-02-17T13:29:32;13.1;89.8
78076;DHT22;67714;52.546;13.422;2023-02-17T13:31:44;13.1;90.1
78076;DHT22;67714;52.546;13.422;2023-02-17T13:33:47;13.1;90.1
78076;DHT22;67714;52.546;13.422;2023-02-17T13:35:49;13.1;90.1
78076;DHT22;67714;52.546;13.422;2023-02-17T13:37:51;13.2;89.5
78076;DHT22;67714;52.546;13.422;2023-02-17T13:39:52;13.3;88.8
78076;DHT22;67714;52.546;13.422;2023-02-17T13:41:57;13.3;88.7
78076;DHT22;67714;52.546;13.422;2023-02-17T13:44:20;13.3;88.6
78076;DHT22;67714;52.546;13.422;2023-02-17T13:46:25;13.3;88.2
78076;DHT22;67714;52.546;13.422;2023-02-17T13:48:28;13.4;87.8
78076;DHT22;67714;52.546;13.422;2023-02-17T13:50:32;13.3;88
78076;DHT22;67714;52.546;13.422;2023-02-17T13:52:35;13.3;88.3
78076;DHT22;67714;52.546;13.422;2023-02-17T13:54:36;13.3;88.5
78076;DHT22;67714;52.546;13.422;2023-02-17T13:56:38;13.2;88.5
78076;DHT22;67714;52.546;13.422;2023-02-17T13:58:40;13.2;88.6
78076;DHT22;67714;52.546;13.422;2023-02-17T14:00:42;13.2;88.6
78076;DHT22;67714;52.546;13.422;2023-02-17T14:02:45;13.3;88.5
78076;DHT22;67714;52.546;13.422;2023-02-17T14:04:47;13.3;88.3
78076;DHT22;67714;52.546;13.422;2023-02-17T14:06:49;13.3;88.2
78076;DHT22;67714;52.546;13.422;2023-02-17T14:08:51;13.3;88.4
78076;DHT22;67714;52.546;13.422;2023-02-17T14:10:52;13.3;88.8
78076;DHT22;67714;52.546;13.422;2023-02-17T14:12:54;13.3;88.9
78076;DHT22;67714;52.546;13.422;2023-02-17T14:14:56;13.3;88.8
78076;DHT22;67714;52.546;13.422;2023-02-17T14:16:59;13.3;88.9
78076;DHT22;67714;52.546;13.422;2023-02-17T14:19:04;13.3;88.7
78076;DHT22;67714;52.546;13.422;2023-02-17T14:21:08;13.3;88.8
78076;DHT22;67714;52.546;13.422;2023-02-17T14:23:11;13.3;88.5
78076;DHT22;67714;52.546;13.422;2023-02-17T14:25:14;13.3;88.7
78076;DHT22;67714;52.546;13.422;2023-02-17T14:27:26;13.3;88.7
78076;DHT22;67714;52.546;13.422;2023-02-17T14:29:44;13.3;88.9
78076;DHT22;67714;52.546;13.422;2023-02-17T14:31:49;13.3;88.8
78076;DHT22;67714;52.546;13.422;2023-02-17T14:33:51;13.4;88.8
78076;DHT22;67714;52.546;13.422;2023-02-17T14:35:55;13.4;88.5
78076;DHT22;67714;52.546;13.422;2023-02-17T14:38:06;13.4;88.9
78076;DHT22;67714;52.546;13.422;2023-02-17T14:40:15;13.3;89.2
78076;DHT22;67714;52.546;13.422;2023-02-17T14:42:16;13.4;89.2
78076;DHT22;67714;52.546;13.422;2023-02-17T14:44:17;13.3;89.3
78076;DHT22;67714;52.546;13.422;2023-02-17T14:46:19;13.3;89.4
78076;DHT22;67714;52.546;13.422;2023-02-17T14:48:20;13.3;89.9
78076;DHT22;67714;52.546;13.422;2023-02-17T14:50:21;13.2;90.4
78076;DHT22;67714;52.546;13.422;2023-02-17T14:52:23;13.2;91
78076;DHT22;67714;52.546;13.422;2023-02-17T14:54:27;13.1;91.9
78076;DHT22;67714;52.546;13.422;2023-02-17T14:56:32;13;92.6
78076;DHT22;67714;52.546;13.422;2023-02-17T14:58:34;12.8;94.1
78076;DHT22;67714;52.546;13.422;2023-02-17T15:00:36;12.7;94.9
78076;DHT22;67714;52.546;13.422;2023-02-17T15:02:37;12.6;95.7
78076;DHT22;67714;52.546;13.422;2023-02-17T15:04:38;12.5;96.8
78076;DHT22;67714;52.546;13.422;2023-02-17T15:06:42;12.5;97.1
78076;DHT22;67714;52.546;13.422;2023-02-17T15:08:45;12.4;97.6
78076;DHT22;67714;52.546;13.422;2023-02-17T15:10:47;12.4;97.9
78076;DHT22;67714;52.546;13.422;2023-02-17T15:12:50;12.4;98
78076;DHT22;67714;52.546;13.422;2023-02-17T15:14:51;12.4;98.1
78076;DHT22;67714;52.546;13.422;2023-02-17T15:16:52;12.3;98.6
78076;DHT22;67714;52.546;13.422;2023-02-17T15:18:55;12.2;99.1
78076;DHT22;67714;52.546;13.422;2023-02-17T15:20:56;12.3;99.2
78076;DHT22;67714;52.546;13.422;2023-02-17T15:22:57;12.3;99.2
78076;DHT22;67714;52.546;13.422;2023-02-17T15:24:58;12.4;99.2
78076;DHT22;67714;52.546;13.422;2023-02-17T15:27:00;12.4;98.7
78076;DHT22;67714;52.546;13.422;2023-02-17T15:29:01;12.3;99
78076;DHT22;67714;52.546;13.422;2023-02-17T15:31:03;12.3;99.5
78076;DHT22;67714;52.546;13.422;2023-02-17T15:33:05;12.3;99.9
78076;DHT22;67714;52.546;13.422;2023-02-17T15:35:12;12.3;99.8
78076;DHT22;67714;52.546;13.422;2023-02-17T15:37:15;12.3;100
78076;DHT22;67714;52.546;13.422;2023-02-17T15:39:18;12.3;100
78076;DHT22;67714;52.546;13.422;2023-02-17T15:41:21;12.2;100
78076;DHT22;67714;52.546;13.422;2023-02-17T15:43:32;12.2;100
78076;DHT22;67714;52.546;13.422;2023-02-17T15:45:34;12.2;100
78076;DHT22;67714;52.546;13.422;2023-02-17T15:47:35;12.3;100
78076;DHT22;67714;52.546;13.422;2023-02-17T15:49:37;12.2;100
78076;DHT22;67714;52.546;13.422;2023-02-17T15:51:45;12.3;100
78076;DHT22;67714;52.546;13.422;2023-02-17T15:53:46;12.3;100
78076;DHT22;67714;52.546;13.422;2023-02-17T15:55:48;12.3;100
78076;DHT22;67714;52.546;13.422;2023-02-17T15:57:51;12.3;100
78076;DHT22;67714;52.546;13.422;2023-02-17T15:59:53;12.3;99.8
78076;DHT22;67714;52.546;13.422;2023-02-17T16:01:54;12.4;99.5
78076;DHT22;67714;52.546;13.422;2023-02-17T16:03:56;12.5;98.9
78076;DHT22;67714;52.546;13.422;2023-02-17T16:05:58;12.4;99
78076;DHT22;67714;52.546;13.422;2023-02-17T16:07:59;12.4;98.9
78076;DHT22;67714;52.546;13.422;2023-02-17T16:10:00;12.4;98.6
78076;DHT22;67714;52.546;13.422;2023-02-17T16:12:02;12.4;98.5
78076;DHT22;67714;52.546;13.422;2023-02-17T16:14:03;12.4;98.2
78076;DHT22;67714;52.546;13.422;2023-02-17T16:16:08;12.4;98.3
78076;DHT22;67714;52.546;13.422;2023-02-17T16:18:18;12.4;98
78076;DHT22;67714;52.546;13.422;2023-02-17T16:20:23;12.4;98.1
78076;DHT22;67714;52.546;13.422;2023-02-17T16:22:24;12.4;97.8
78076;DHT22;67714;52.546;13.422;2023-02-17T16:24:25;12.5;97.7
78076;DHT22;67714;52.546;13.422;2023-02-17T16:26:29;12.5;97.2
78076;DHT22;67714;52.546;13.422;2023-02-17T16:28:31;12.4;96.9
78076;DHT22;67714;52.546;13.422;2023-02-17T16:30:34;12.5;96.9
78076;DHT22;67714;52.546;13.422;2023-02-17T16:32:35;12.5;96.7
78076;DHT22;67714;52.546;13.422;2023-02-17T16:34:36;12.5;96.4
78076;DHT22;67714;52.546;13.422;2023-02-17T16:36:38;12.6;95.7
78076;DHT22;67714;52.546;13.422;2023-02-17T16:38:40;12.5;95.9
78076;DHT22;67714;52.546;13.422;2023-02-17T16:40:44;12.5;95.7
78076;DHT22;67714;52.546;13.422;2023-02-17T16:42:46;12.5;95.2
78076;DHT22;67714;52.546;13.422;2023-02-17T16:44:47;12.5;94.8
78076;DHT22;67714;52.546;13.422;2023-02-17T16:46:49;12.5;94.3
78076;DHT22;67714;52.546;13.422;2023-02-17T16:48:51;12.6;94.2
78076;DHT22;67714;52.546;13.422;2023-02-17T16:50:52;12.6;94
78076;DHT22;67714;52.546;13.422;2023-02-17T16:52:56;12.6;93.5
78076;DHT22;67714;52.546;13.422;2023-02-17T16:54:57;12.6;92.7
78076;DHT22;67714;52.546;13.422;2023-02-17T16:56:59;12.5;93.2
78076;DHT22;67714;52.546;13.422;2023-02-17T16:59:00;12.4;94.1
78076;DHT22;67714;52.546;13.422;2023-02-17T17:01:02;12.3;94.1
78076;DHT22;67714;52.546;13.422;2023-02-17T17:03:03;12.3;93.8
78076;DHT22;67714;52.546;13.422;2023-02-17T17:05:05;12.2;94.2
78076;DHT22;67714;52.546;13.422;2023-02-17T17:07:06;12.2;94.2
78076;DHT22;67714;52.546;13.422;2023-02-17T17:09:09;12.1;94.6
78076;DHT22;67714;52.546;13.422;2023-02-17T17:11:15;12.1;94.6
78076;DHT22;67714;52.546;13.422;2023-02-17T17:13:17;12;94.6
78076;DHT22;67714;52.546;13.422;2023-02-17T17:15:18;12;94.3
78076;DHT22;67714;52.546;13.422;2023-02-17T17:17:20;12.1;94.2
78076;DHT22;67714;52.546;13.422;2023-02-17T17:19:21;12.1;93.8
78076;DHT22;67714;52.546;13.422;2023-02-17T17:21:23;12.2;93.5
78076;DHT22;67714;52.546;13.422;2023-02-17T17:23:24;12.2;93.8
78076;DHT22;67714;52.546;13.422;2023-02-17T17:25:26;12.2;93
78076;DHT22;67714;52.546;13.422;2023-02-17T17:27:27;12.3;93.1
78076;DHT22;67714;52.546;13.422;2023-02-17T17:29:29;12.3;93.2
78076;DHT22;67714;52.546;13.422;2023-02-17T17:31:30;12.3;93.3
78076;DHT22;67714;52.546;13.422;2023-02-17T17:33:31;12.3;93
78076;DHT22;67714;52.546;13.422;2023-02-17T17:35:32;12.2;93.1
78076;DHT22;67714;52.546;13.422;2023-02-17T17:37:34;12.3;92.8
78076;DHT22;67714;52.546;13.422;2023-02-17T17:39:36;12.4;92.5
78076;DHT22;67714;52.546;13.422;2023-02-17T17:41:37;12.4;92.5
78076;DHT22;67714;52.546;13.422;2023-02-17T17:43:38;12.4;91.8
78076;DHT22;67714;52.546;13.422;2023-02-17T17:45:40;12.5;90.9
78076;DHT22;67714;52.546;13.422;2023-02-17T17:47:41;12.5;90.2
78076;DHT22;67714;52.546;13.422;2023-02-17T17:49:42;12.5;90.2
78076;DHT22;67714;52.546;13.422;2023-02-17T17:51:44;12.5;90
78076;DHT22;67714;52.546;13.422;2023-02-17T17:53:46;12.5;89.8
78076;DHT22;67714;52.546;13.422;2023-02-17T17:55:47;12.5;89.6
78076;DHT22;67714;52.546;13.422;2023-02-17T17:57:48;12.6;89.1
78076;DHT22;67714;52.546;13.422;2023-02-17T17:59:49;12.6;89.2
78076;DHT22;67714;52.546;13.422;2023-02-17T18:01:50;12.6;88.3
78076;DHT22;67714;52.546;13.422;2023-02-17T18:03:52;12.7;88
78076;DHT22;67714;52.546;13.422;2023-02-17T18:05:53;12.6;88.7
78076;DHT22;67714;52.546;13.422;2023-02-17T18:07:55;12.5;89.4
78076;DHT22;67714;52.546;13.422;2023-02-17T18:09:57;12.4;89.9
78076;DHT22;67714;52.546;13.422;2023-02-17T18:12:02;12.3;89.3
78076;DHT22;67714;52.546;13.422;2023-02-17T18:14:06;12.2;89.7
78076;DHT22;67714;52.546;13.422;2023-02-17T18:16:09;12.1;89.8
78076;DHT22;67714;52.546;13.422;2023-02-17T18:18:10;11.9;89.6
78076;DHT22;67714;52.546;13.422;2023-02-17T18:20:13;11.8;88
78076;DHT22;67714;52.546;13.422;2023-02-17T18:22:14;11.6;88.6
78076;DHT22;67714;52.546;13.422;2023-02-17T18:24:15;11.6;88.7
78076;DHT22;67714;52.546;13.422;2023-02-17T18:26:16;11.5;89
78076;DHT22;67714;52.546;13.422;2023-02-17T18:28:17;11.4;88.9
78076;DHT22;67714;52.546;13.422;2023-02-17T18:30:20;11.5;87.5
78076;DHT22;67714;52.546;13.422;2023-02-17T18:32:21;11.6;85.3
78076;DHT22;67714;52.546;13.422;2023-02-17T18:34:23;11.7;83.6
78076;DHT22;67714;52.546;13.422;2023-02-17T18:36:26;11.6;84.2
78076;DHT22;67714;52.546;13.422;2023-02-17T18:38:27;11.5;83.3
78076;DHT22;67714;52.546;13.422;2023-02-17T18:40:28;11.5;82.1
78076;DHT22;67714;52.546;13.422;2023-02-17T18:42:30;11.5;81.7
78076;DHT22;67714;52.546;13.422;2023-02-17T18:44:31;11.5;81.3
78076;DHT22;67714;52.546;13.422;2023-02-17T18:46:33;11.4;81
78076;DHT22;67714;52.546;13.422;2023-02-17T18:48:34;11.3;79.7
78076;DHT22;67714;52.546;13.422;2023-02-17T18:50:36;11.4;78.9
78076;DHT22;67714;52.546;13.422;2023-02-17T18:52:37;11.4;79.2
78076;DHT22;67714;52.546;13.422;2023-02-17T18:54:39;11.3;79
78076;DHT22;67714;52.546;13.422;2023-02-17T18:56:40;11.3;79.3
78076;DHT22;67714;52.546;13.422;2023-02-17T18:58:42;11.3;79.3
78076;DHT22;67714;52.546;13.422;2023-02-17T19:00:43;11.3;77
78076;DHT22;67714;52.546;13.422;2023-02-17T19:02:44;11.2;78.2
78076;DHT22;67714;52.546;13.422;2023-02-17T19:04:45;11.2;77.1
78076;DHT22;67714;52.546;13.422;2023-02-17T19:06:47;11.2;76.5
78076;DHT22;67714;52.546;13.422;2023-02-17T19:08:48;11.3;75.8
78076;DHT22;67714;52.546;13.422;2023-02-17T19:10:50;11.2;75.9
78076;DHT22;67714;52.546;13.422;2023-02-17T19:12:51;11.1;75.6
78076;DHT22;67714;52.546;13.422;2023-02-17T19:14:52;11.1;73.7
78076;DHT22;67714;52.546;13.422;2023-02-17T19:16:54;11;73.4
78076;DHT22;67714;52.546;13.422;2023-02-17T19:18:56;11;72.7
78076;DHT22;67714;52.546;13.422;2023-02-17T19:20:57;10.9;72
78076;DHT22;67714;52.546;13.422;2023-02-17T19:23:00;11;71.1
78076;DHT22;67714;52.546;13.422;2023-02-17T19:25:02;11;70.9
78076;DHT22;67714;52.546;13.422;2023-02-17T19:27:03;10.9;71.3
78076;DHT22;67714;52.546;13.422;2023-02-17T19:29:05;10.9;71.8
78076;DHT22;67714;52.546;13.422;2023-02-17T19:31:07;10.8;71.7
78076;DHT22;67714;52.546;13.422;2023-02-17T19:33:08;10.8;71.1
78076;DHT22;67714;52.546;13.422;2023-02-17T19:35:10;10.7;70.9
78076;DHT22;67714;52.546;13.422;2023-02-17T19:37:11;10.7;71.2
78076;DHT22;67714;52.546;13.422;2023-02-17T19:39:12;10.6;71.9
78076;DHT22;67714;52.546;13.422;2023-02-17T19:41:15;10.5;72.6
78076;DHT22;67714;52.546;13.422;2023-02-17T19:43:17;10.4;73.5
78076;DHT22;67714;52.546;13.422;2023-02-17T19:45:19;10.3;74.3
78076;DHT22;67714;52.546;13.422;2023-02-17T19:47:21;10.3;74.5
78076;DHT22;67714;52.546;13.422;2023-02-17T19:49:22;10.3;74.4
78076;DHT22;67714;52.546;13.422;2023-02-17T19:51:23;10.4;73.8
78076;DHT22;67714;52.546;13.422;2023-02-17T19:53:25;10.4;72.8
78076;DHT22;67714;52.546;13.422;2023-02-17T19:55:26;10.4;72.7
78076;DHT22;67714;52.546;13.422;2023-02-17T19:57:28;10.4;72.5
78076;DHT22;67714;52.546;13.422;2023-02-17T19:59:30;10.3;71.7
78076;DHT22;67714;52.546;13.422;2023-02-17T20:01:32;10.3;71.7
78076;DHT22;67714;52.546;13.422;2023-02-17T20:03:34;10.2;72
78076;DHT22;67714;52.546;13.422;2023-02-17T20:05:36;10.2;71.9
78076;DHT22;67714;52.546;13.422;2023-02-17T20:07:38;10.2;71.8
78076;DHT22;67714;52.546;13.422;2023-02-17T20:09:39;10.1;72.2
78076;DHT22;67714;52.546;13.422;2023-02-17T20:11:41;10.1;72.1
78076;DHT22;67714;52.546;13.422;2023-02-17T20:13:42;10.1;72
78076;DHT22;67714;52.546;13.422;2023-02-17T20:15:43;10;72.3
78076;DHT22;67714;52.546;13.422;2023-02-17T20:17:44;9.9;72.6
78076;DHT22;67714;52.546;13.422;2023-02-17T20:19:45;9.9;72.6
78076;DHT22;67714;52.546;13.422;2023-02-17T20:21:46;9.8;72.9
78076;DHT22;67714;52.546;13.422;2023-02-17T20:23:48;9.8;73.5
78076;DHT22;67714;52.546;13.422;2023-02-17T20:25:49;9.7;73.7
78076;DHT22;67714;52.546;13.422;2023-02-17T20:27:51;9.7;74.3
78076;DHT22;67714;52.546;13.422;2023-02-17T20:29:52;9.7;74.1
78076;DHT22;67714;52.546;13.422;2023-02-17T20:31:53;9.7;74.3
78076;DHT22;67714;52.546;13.422;2023-02-17T20:33:55;9.7;74.4
78076;DHT22;67714;52.546;13.422;2023-02-17T20:35:56;9.7;74.3
78076;DHT22;67714;52.546;13.422;2023-02-17T20:37:58;9.6;74.6
78076;DHT22;67714;52.546;13.422;2023-02-17T20:39:59;9.6;74.6
78076;DHT22;67714;52.546;13.422;2023-02-17T20:42:01;9.6;74.6
78076;DHT22;67714;52.546;13.422;2023-02-17T20:44:02;9.6;74.2
78076;DHT22;67714;52.546;13.422;2023-02-17T20:46:04;9.6;74.2
78076;DHT22;67714;52.546;13.422;2023-02-17T20:48:05;9.6;74.4
78076;DHT22;67714;52.546;13.422;2023-02-17T20:50:09;9.5;74.4
78076;DHT22;67714;52.546;13.422;2023-02-17T20:52:11;9.5;75
78076;DHT22;67714;52.546;13.422;2023-02-17T20:54:12;9.4;75.3
78076;DHT22;67714;52.546;13.422;2023-02-17T20:56:16;9.5;75.5
78076;DHT22;67714;52.546;13.422;2023-02-17T20:58:17;9.4;75.5
78076;DHT22;67714;52.546;13.422;2023-02-17T21:00:21;9.5;75.6
78076;DHT22;67714;52.546;13.422;2023-02-17T21:02:22;9.4;75.7
78076;DHT22;67714;52.546;13.422;2023-02-17T21:04:24;9.4;75.5
78076;DHT22;67714;52.546;13.422;2023-02-17T21:06:27;9.4;75.5
78076;DHT22;67714;52.546;13.422;2023-02-17T21:08:29;9.4;75.3
78076;DHT22;67714;52.546;13.422;2023-02-17T21:10:31;9.5;75
78076;DHT22;67714;52.546;13.422;2023-02-17T21:12:32;9.5;75
78076;DHT22;67714;52.546;13.422;2023-02-17T21:14:33;9.4;75.5
78076;DHT22;67714;52.546;13.422;2023-02-17T21:16:36;9.5;75
78076;DHT22;67714;52.546;13.422;2023-02-17T21:18:37;9.5;74.9
78076;DHT22;67714;52.546;13.422;2023-02-17T21:20:38;9.5;75.1
78076;DHT22;67714;52.546;13.422;2023-02-17T21:22:40;9.4;75.1
78076;DHT22;67714;52.546;13.422;2023-02-17T21:24:41;9.4;75.3
78076;DHT22;67714;52.546;13.422;2023-02-17T21:26:42;9.3;75.5
78076;DHT22;67714;52.546;13.422;2023-02-17T21:28:45;9.3;75.7
78076;DHT22;67714;52.546;13.422;2023-02-17T21:30:46;9.3;75.4
78076;DHT22;67714;52.546;13.422;2023-02-17T21:32:47;9.3;75.5
78076;DHT22;67714;52.546;13.422;2023-02-17T21:34:49;9.2;75.7
78076;DHT22;67714;52.546;13.422;2023-02-17T21:36:50;9.2;76
78076;DHT22;67714;52.546;13.422;2023-02-17T21:38:51;9.1;75.9
78076;DHT22;67714;52.546;13.422;2023-02-17T21:40:52;9.1;75.9
78076;DHT22;67714;52.546;13.422;2023-02-17T21:42:54;9.1;76.1
78076;DHT22;67714;52.546;13.422;2023-02-17T21:44:55;9.1;76.1
78076;DHT22;67714;52.546;13.422;2023-02-17T21:46:56;9;76.2
78076;DHT22;67714;52.546;13.422;2023-02-17T21:48:59;9;76.4
78076;DHT22;67714;52.546;13.422;2023-02-17T21:51:02;9;76.4
78076;DHT22;67714;52.546;13.422;2023-02-17T21:53:03;9;76.6
78076;DHT22;67714;52.546;13.422;2023-02-17T21:55:05;8.9;76.8
78076;DHT22;67714;52.546;13.422;2023-02-17T21:57:06;8.9;77.4